createdAt,value
2023-05-11T00:00:38.937Z,7.77
2023-05-11T00:03:06.228Z,7.45
2023-05-11T00:05:32.788Z,7.43
2023-05-11T00:07:59.155Z,7.80
2023-05-11T00:10:25.532Z,7.25
2023-05-11T00:12:51.890Z,7.07
2023-05-11T00:15:18.368Z,7.07
2023-05-11T00:17:45.381Z,6.57
2023-05-11T00:20:11.924Z,6.93
2023-05-11T00:22:39.132Z,7.50
2023-05-11T00:25:06.480Z,7.67
2023-05-11T00:27:32.897Z,7.30
2023-05-11T00:29:59.258Z,7.00
2023-05-11T00:32:25.833Z,7.22
2023-05-11T00:34:52.232Z,7.20
2023-05-11T00:37:18.615Z,7.20
2023-05-11T00:39:44.987Z,8.13
2023-05-11T00:42:11.675Z,8.20
2023-05-11T00:44:38.043Z,7.57
2023-05-11T00:47:04.708Z,6.90
2023-05-11T00:49:31.304Z,6.80
2023-05-11T00:51:57.879Z,7.97
2023-05-11T00:54:24.741Z,7.65
2023-05-11T00:56:51.736Z,6.80
2023-05-11T00:59:18.854Z,7.57
2023-05-11T01:01:45.529Z,7.53
2023-05-11T01:04:12.320Z,7.38
2023-05-11T01:06:47.830Z,8.38
2023-05-11T01:09:31.332Z,7.20
2023-05-11T01:12:04.307Z,8.65
2023-05-11T01:14:39.281Z,7.53
2023-05-11T01:17:23.846Z,7.35
2023-05-11T01:19:58.979Z,7.15
2023-05-11T01:22:38.799Z,7.13
2023-05-11T01:25:29.550Z,7.25
2023-05-11T01:28:37.426Z,7.77
2023-05-11T01:31:10.786Z,7.45
2023-05-11T01:33:40.842Z,7.80
2023-05-11T01:36:11.015Z,8.35
2023-05-11T01:38:44.285Z,8.00
2023-05-11T01:41:16.303Z,9.00
2023-05-11T01:43:45.789Z,8.48
2023-05-11T01:46:16.843Z,8.45
2023-05-11T01:48:49.127Z,8.88
2023-05-11T01:51:17.909Z,8.30
2023-05-11T01:53:46.258Z,8.13
2023-05-11T01:56:14.249Z,8.02
2023-05-11T01:58:42.645Z,8.50
2023-05-11T02:01:10.671Z,7.82
2023-05-11T02:03:39.636Z,7.90
2023-05-11T02:06:07.903Z,8.00
2023-05-11T02:08:35.422Z,7.93
2023-05-11T02:11:03.315Z,8.15
2023-05-11T02:13:30.483Z,7.15
2023-05-11T02:15:58.559Z,7.75
2023-05-11T02:18:25.219Z,7.93
2023-05-11T02:20:52.153Z,8.05
2023-05-11T02:23:20.564Z,8.20
2023-05-11T02:25:47.605Z,8.48
2023-05-11T02:28:14.032Z,9.15
2023-05-11T02:30:46.893Z,8.70
2023-05-11T02:33:21.289Z,7.90
2023-05-11T02:35:50.334Z,10.20
2023-05-11T02:38:18.711Z,10.20
2023-05-11T02:40:51.374Z,9.68
2023-05-11T02:43:25.207Z,9.53
2023-05-11T02:45:58.515Z,8.68
2023-05-11T02:48:38.453Z,9.20
2023-05-11T02:51:07.477Z,8.57
2023-05-11T02:53:36.272Z,9.13
2023-05-11T02:56:03.293Z,8.37
2023-05-11T02:58:30.257Z,9.48
2023-05-11T03:00:57.535Z,8.98
2023-05-11T03:03:24.765Z,10.32
2023-05-11T03:05:51.219Z,9.50
2023-05-11T03:08:17.663Z,9.10
2023-05-11T03:10:44.560Z,9.20
2023-05-11T03:13:11.082Z,9.27
2023-05-11T03:15:38.319Z,8.43
2023-05-11T03:18:08.308Z,9.40
2023-05-11T03:20:40.603Z,8.60
2023-05-11T03:23:08.441Z,8.60
2023-05-11T03:25:35.475Z,8.65
2023-05-11T03:28:04.154Z,9.43
2023-05-11T03:30:31.492Z,9.88
2023-05-11T03:32:58.067Z,9.20
2023-05-11T03:35:27.195Z,9.18
2023-05-11T03:37:56.426Z,8.95
2023-05-11T03:40:24.300Z,9.05
2023-05-11T03:42:54.371Z,8.20
2023-05-11T03:45:21.874Z,9.03
2023-05-11T03:47:50.243Z,9.15
2023-05-11T03:50:17.626Z,8.88
2023-05-11T03:52:44.507Z,9.60
2023-05-11T03:55:11.464Z,8.07
2023-05-11T03:57:38.705Z,7.43
2023-05-11T04:00:05.991Z,8.65
2023-05-11T04:02:34.605Z,8.55
2023-05-11T04:05:01.149Z,8.80
2023-05-11T04:07:27.614Z,8.70
2023-05-11T04:09:54.062Z,8.70
2023-05-11T04:12:21.326Z,8.73
2023-05-11T04:14:47.727Z,8.45
2023-05-11T04:17:14.067Z,9.10
2023-05-11T04:19:40.586Z,8.38
2023-05-11T04:22:07.071Z,8.27
2023-05-11T04:24:33.507Z,9.20
2023-05-11T04:26:59.990Z,8.43
2023-05-11T04:29:26.340Z,8.00
2023-05-11T04:31:52.768Z,9.05
2023-05-11T04:34:19.181Z,8.03
2023-05-11T04:36:50.423Z,8.65
2023-05-11T04:39:17.358Z,7.78
2023-05-11T04:41:43.909Z,8.10
2023-05-11T04:44:10.467Z,9.52
2023-05-11T04:46:38.521Z,8.73
2023-05-11T04:49:05.724Z,8.63
2023-05-11T04:51:32.355Z,8.77
2023-05-11T04:53:59.097Z,9.40
2023-05-11T04:56:26.338Z,8.35
2023-05-11T04:58:52.756Z,9.40
2023-05-11T05:01:19.207Z,9.52
2023-05-11T05:03:48.554Z,9.68
2023-05-11T05:06:15.019Z,9.65
2023-05-11T05:08:41.513Z,9.27
2023-05-11T05:11:07.956Z,9.37
2023-05-11T05:13:34.352Z,9.68
2023-05-11T05:16:00.760Z,9.48
2023-05-11T05:18:27.187Z,10.32
2023-05-11T05:20:53.679Z,9.05
2023-05-11T05:23:20.096Z,9.83
2023-05-11T05:25:46.532Z,9.27
2023-05-11T05:28:13.078Z,9.57
2023-05-11T05:30:39.627Z,10.30
2023-05-11T05:33:06.161Z,10.13
2023-05-11T05:35:32.655Z,11.43
2023-05-11T05:37:59.052Z,10.85
2023-05-11T05:40:25.523Z,10.30
2023-05-11T05:42:52.029Z,9.85
2023-05-11T05:45:18.552Z,9.93
2023-05-11T05:47:45.008Z,9.27
2023-05-11T05:50:11.742Z,10.38
2023-05-11T05:52:38.203Z,10.30
2023-05-11T05:55:04.916Z,9.82
2023-05-11T05:57:31.365Z,10.48
2023-05-11T05:59:57.867Z,10.53
2023-05-11T06:02:24.346Z,9.02
2023-05-11T06:04:50.969Z,8.80
2023-05-11T06:07:17.395Z,8.43
2023-05-11T06:09:43.842Z,8.18
2023-05-11T06:12:10.315Z,8.27
2023-05-11T06:14:36.688Z,8.98
2023-05-11T06:17:03.088Z,9.02
2023-05-11T06:19:29.483Z,8.32
2023-05-11T06:21:55.835Z,9.45
2023-05-11T06:24:22.465Z,8.57
2023-05-11T06:26:48.888Z,8.13
2023-05-11T06:29:15.356Z,8.88
2023-05-11T06:31:41.853Z,8.38
2023-05-11T06:34:09.522Z,7.65
2023-05-11T06:36:36.302Z,7.90
2023-05-11T06:39:02.683Z,8.52
2023-05-11T06:41:29.093Z,8.70
2023-05-11T06:43:55.500Z,8.05
2023-05-11T06:46:22.259Z,7.30
2023-05-11T06:48:48.824Z,8.17
2023-05-11T06:51:15.217Z,8.15
2023-05-11T06:53:41.625Z,7.40
2023-05-11T06:56:08.320Z,7.60
2023-05-11T06:58:34.780Z,8.05
2023-05-11T07:01:02.350Z,7.07
2023-05-11T07:03:28.857Z,7.85
2023-05-11T07:05:55.288Z,7.68
2023-05-11T07:08:21.738Z,7.68
2023-05-11T07:10:48.296Z,7.90
2023-05-11T07:13:14.722Z,8.53
2023-05-11T07:15:41.542Z,8.25
2023-05-11T07:18:08.062Z,7.93
2023-05-11T07:20:36.645Z,9.25
2023-05-11T07:23:03.515Z,9.35
2023-05-11T07:25:30.256Z,10.20
2023-05-11T07:27:56.683Z,8.32
2023-05-11T07:30:24.306Z,6.53
2023-05-11T07:32:51.278Z,6.82
2023-05-11T07:35:17.866Z,7.30
2023-05-11T07:37:44.261Z,7.20
2023-05-11T07:40:11.159Z,7.15
2023-05-11T07:42:37.618Z,6.85
2023-05-11T07:45:04.219Z,6.03
2023-05-11T07:47:30.650Z,5.03
2023-05-11T07:49:57.393Z,4.57
2023-05-11T07:52:23.785Z,4.43
2023-05-11T07:54:50.161Z,4.82
2023-05-11T07:57:16.558Z,5.22
2023-05-11T07:59:42.935Z,5.07
2023-05-11T08:02:11.461Z,5.13
2023-05-11T08:04:39.290Z,5.00
2023-05-11T08:07:05.756Z,5.38
2023-05-11T08:09:32.329Z,4.85
2023-05-11T08:12:01.527Z,5.22
2023-05-11T08:14:28.169Z,5.60
2023-05-11T08:16:54.690Z,6.07
2023-05-11T08:19:21.260Z,5.00
2023-05-11T08:21:47.706Z,6.05
2023-05-11T08:24:14.112Z,5.70
2023-05-11T08:26:40.512Z,4.57
2023-05-11T08:29:07.564Z,5.38
2023-05-11T08:31:33.964Z,5.60
2023-05-11T08:34:00.649Z,5.10
2023-05-11T08:36:27.170Z,4.63
2023-05-11T08:38:57.028Z,4.43
2023-05-11T08:41:25.550Z,5.05
2023-05-11T08:43:53.081Z,4.57
2023-05-11T08:46:23.531Z,4.65
2023-05-11T08:48:50.597Z,4.82
2023-05-11T08:51:17.108Z,4.60
2023-05-11T08:53:43.571Z,4.68
2023-05-11T08:56:11.766Z,4.60
2023-05-11T08:58:39.670Z,5.35
2023-05-11T09:01:07.166Z,5.00
2023-05-11T09:03:36.962Z,5.53
2023-05-11T09:06:07.174Z,5.00
2023-05-11T09:08:37.916Z,6.75
2023-05-11T09:11:05.427Z,5.53
2023-05-11T09:13:32.005Z,8.02
2023-05-11T09:15:58.989Z,6.93
2023-05-11T09:18:26.861Z,4.32
2023-05-11T09:20:53.537Z,4.63
2023-05-11T09:23:26.556Z,5.20
2023-05-11T09:25:53.369Z,4.95
2023-05-11T09:28:25.870Z,4.70
2023-05-11T09:30:53.632Z,4.45
2023-05-11T09:33:24.758Z,4.80
2023-05-11T09:35:51.736Z,5.43
2023-05-11T09:46:21.371Z,7.88
2023-05-11T09:48:59.902Z,6.05
2023-05-11T09:51:31.899Z,6.50
2023-05-11T09:53:59.481Z,7.18
2023-05-11T09:56:49.122Z,8.13
2023-05-11T09:59:17.057Z,7.27
2023-05-11T10:01:43.896Z,7.75
2023-05-11T10:04:22.348Z,7.25
2023-05-11T10:06:55.565Z,6.93
2023-05-11T10:09:27.188Z,7.03
2023-05-11T10:11:55.313Z,7.80
2023-05-11T10:14:22.650Z,6.93
2023-05-11T10:16:49.875Z,6.70
2023-05-11T10:19:17.206Z,7.03
2023-05-11T10:21:44.138Z,8.98
2023-05-11T10:27:22.896Z,10.53
2023-05-11T10:29:50.453Z,11.10
2023-05-11T10:32:18.975Z,9.60
2023-05-11T10:34:46.971Z,10.13
2023-05-11T10:37:16.241Z,10.68
2023-05-11T10:39:46.161Z,9.87
2023-05-11T10:42:29.115Z,9.10
2023-05-11T10:45:14.223Z,8.45
2023-05-11T10:48:26.423Z,8.00
2023-05-11T10:51:38.547Z,7.40
2023-05-11T10:54:33.390Z,6.80
2023-05-11T10:57:12.256Z,6.88
2023-05-11T11:00:09.581Z,6.68
2023-05-11T11:02:37.254Z,6.53
2023-05-11T11:05:05.891Z,5.60
2023-05-11T11:07:32.480Z,6.27
2023-05-11T11:10:07.060Z,5.90
2023-05-11T11:12:36.823Z,6.20
2023-05-11T11:15:07.333Z,6.15
2023-05-11T11:17:35.528Z,5.05
2023-05-11T11:20:04.780Z,4.80
2023-05-11T11:22:34.463Z,4.93
2023-05-11T11:25:11.526Z,4.25
2023-05-11T11:27:41.194Z,4.90
2023-05-11T11:30:25.399Z,4.78
2023-05-11T11:33:15.169Z,5.17
2023-05-11T11:35:42.102Z,4.93
2023-05-11T11:38:11.238Z,5.13
2023-05-11T11:40:49.615Z,4.53
2023-05-11T11:43:19.084Z,5.32
2023-05-11T11:45:51.658Z,5.50
2023-05-11T11:48:23.504Z,5.28
2023-05-11T11:51:02.387Z,5.78
2023-05-11T11:53:38.239Z,6.03
2023-05-11T12:03:05.961Z,5.45
2023-05-11T12:05:35.932Z,6.22
2023-05-11T12:08:07.350Z,6.40
2023-05-11T12:10:33.795Z,6.07
2023-05-11T12:13:00.929Z,6.55
2023-05-11T12:15:29.753Z,6.10
2023-05-11T12:17:56.996Z,6.03
2023-05-11T12:20:24.241Z,6.30
2023-05-11T12:22:50.930Z,5.68
2023-05-11T12:25:18.785Z,5.10
2023-05-11T12:28:00.371Z,5.30
2023-05-11T12:30:30.482Z,5.80
2023-05-11T12:32:59.281Z,5.22
2023-05-11T12:35:31.375Z,5.15
2023-05-11T12:38:01.053Z,5.60
2023-05-11T12:40:27.911Z,5.10
2023-05-11T12:42:56.384Z,5.78
2023-05-11T12:45:24.630Z,6.03
2023-05-11T12:47:53.363Z,5.47
2023-05-11T12:50:20.889Z,6.05
2023-05-11T12:52:48.911Z,6.10
2023-05-11T12:55:26.268Z,6.22
2023-05-11T12:57:54.613Z,6.40
2023-05-11T13:00:22.003Z,7.20
2023-05-11T13:02:50.332Z,6.82
2023-05-11T13:05:19.315Z,6.67
2023-05-11T13:07:46.608Z,6.53
2023-05-11T13:10:14.007Z,6.88
2023-05-11T13:12:54.198Z,6.60
2023-05-11T13:15:22.755Z,7.40
2023-05-11T13:17:57.178Z,6.83
2023-05-11T13:20:27.226Z,6.97
2023-05-11T13:23:07.467Z,6.95
2023-05-11T13:25:55.384Z,5.82
2023-05-11T13:28:24.303Z,2.63
2023-05-11T13:30:51.978Z,1.20
2023-05-11T13:33:19.107Z,1.27
2023-05-11T13:35:45.767Z,1.15
2023-05-11T13:38:13.101Z,1.50
2023-05-11T13:40:39.519Z,1.35
2023-05-11T13:43:06.518Z,1.73
2023-05-11T13:45:33.056Z,1.70
2023-05-11T13:47:59.497Z,1.40
2023-05-11T13:50:26.636Z,1.42
2023-05-11T13:52:53.764Z,1.63
2023-05-11T13:55:21.035Z,1.40
2023-05-11T13:57:47.832Z,1.40
2023-05-11T14:00:15.136Z,1.48
2023-05-11T14:02:41.777Z,1.83
2023-05-11T14:05:08.956Z,1.95
2023-05-11T14:07:46.224Z,1.63
2023-05-11T14:10:15.379Z,1.60
2023-05-11T14:12:41.872Z,1.58
2023-05-11T14:15:08.899Z,1.85
2023-05-11T14:17:35.477Z,1.90
2023-05-11T14:20:02.391Z,1.60
2023-05-11T14:22:29.197Z,1.80
2023-05-11T14:24:56.109Z,1.75
2023-05-11T14:27:23.429Z,2.00
2023-05-11T14:29:52.206Z,1.80
2023-05-11T14:32:19.446Z,1.70
2023-05-11T14:34:46.230Z,2.28
2023-05-11T14:37:13.191Z,1.98
2023-05-11T14:39:41.027Z,2.00
2023-05-11T14:42:07.832Z,1.83
2023-05-11T14:44:34.213Z,2.37
2023-05-11T14:47:00.738Z,2.20
2023-05-11T14:49:27.484Z,2.20
2023-05-11T14:51:53.870Z,1.98
2023-05-11T14:54:20.231Z,2.35
2023-05-11T14:56:51.304Z,2.47
2023-05-11T14:59:17.786Z,3.05
2023-05-11T15:01:44.253Z,2.30
2023-05-11T15:04:10.725Z,2.15
2023-05-11T15:06:37.269Z,2.30
2023-05-11T15:09:04.175Z,2.13
2023-05-11T15:11:30.671Z,2.50
2023-05-11T15:13:57.193Z,2.78
2023-05-11T15:16:23.633Z,2.80
2023-05-11T15:18:50.169Z,2.90
2023-05-11T15:21:16.711Z,3.40
2023-05-11T15:23:43.130Z,3.13
2023-05-11T15:26:10.207Z,3.22
2023-05-11T15:28:36.773Z,2.63
2023-05-11T15:31:03.355Z,2.55
2023-05-11T15:33:30.144Z,3.07
2023-05-11T15:35:56.521Z,2.88
2023-05-11T15:38:22.889Z,2.60
2023-05-11T15:40:49.293Z,2.22
2023-05-11T15:43:15.804Z,2.22
2023-05-11T15:45:42.349Z,1.90
2023-05-11T15:48:08.777Z,1.75
2023-05-11T15:50:36.487Z,1.33
2023-05-11T15:53:02.926Z,1.05
2023-05-11T15:55:29.318Z,1.20
2023-05-11T15:57:55.745Z,1.10
2023-05-11T16:00:22.120Z,1.48
2023-05-11T16:02:49.262Z,1.65
2023-05-11T16:05:15.950Z,1.70
2023-05-11T16:07:42.375Z,1.63
2023-05-11T16:10:09.236Z,1.93
2023-05-11T16:12:35.655Z,2.08
2023-05-11T16:15:02.072Z,2.22
2023-05-11T16:17:28.550Z,1.90
2023-05-11T16:19:54.983Z,2.22
2023-05-11T16:22:22.375Z,1.43
2023-05-11T16:24:48.730Z,1.70
2023-05-11T16:27:15.393Z,1.40
2023-05-11T16:29:41.788Z,1.30
2023-05-11T16:32:08.192Z,1.48
2023-05-11T16:34:35.146Z,1.17
2023-05-11T16:39:28.135Z,1.65
2023-05-11T16:41:54.590Z,1.40
2023-05-11T16:44:21.090Z,2.10
2023-05-11T16:46:47.904Z,1.77
2023-05-11T16:49:14.405Z,1.70
2023-05-11T16:51:40.769Z,1.83
2023-05-11T16:54:07.461Z,2.00
2023-05-11T16:56:33.933Z,2.50
2023-05-11T16:59:00.360Z,2.17
2023-05-11T17:01:26.853Z,2.65
2023-05-11T17:03:53.439Z,2.20
2023-05-11T17:06:22.655Z,2.25
2023-05-11T17:08:49.223Z,2.00
2023-05-11T17:11:15.771Z,2.60
2023-05-11T17:13:42.209Z,1.80
2023-05-11T17:16:08.606Z,1.20
2023-05-11T17:18:35.166Z,0.82
2023-05-11T17:21:01.716Z,1.08
2023-05-11T17:23:28.542Z,0.80
2023-05-11T17:25:55.028Z,0.80
2023-05-11T17:28:22.112Z,0.80
2023-05-11T17:30:53.164Z,0.60
2023-05-11T17:33:19.859Z,0.57
2023-05-11T17:35:46.503Z,0.80
2023-05-11T17:38:12.917Z,0.80
2023-05-11T17:40:39.332Z,0.63
2023-05-11T17:43:05.765Z,0.77
2023-05-11T17:45:32.288Z,0.60
2023-05-11T17:47:58.884Z,0.80
2023-05-11T17:50:25.329Z,0.60
2023-05-11T17:52:51.720Z,0.60
2023-05-11T17:55:19.033Z,1.10
2023-05-11T17:57:45.698Z,0.70
2023-05-11T18:00:12.633Z,0.87
2023-05-11T18:02:39.216Z,0.98
2023-05-11T18:05:06.906Z,0.47
2023-05-11T18:07:33.371Z,1.90
2023-05-11T18:09:59.992Z,2.28
2023-05-11T18:12:26.934Z,2.37
2023-05-11T18:14:53.481Z,2.35
2023-05-11T18:17:19.848Z,2.60
2023-05-11T18:19:46.265Z,2.58
2023-05-11T18:22:12.702Z,2.90
2023-05-11T18:24:39.363Z,2.53
2023-05-11T18:27:05.891Z,2.80
2023-05-11T18:29:32.366Z,2.80
2023-05-11T18:31:58.977Z,3.08
2023-05-11T18:34:25.472Z,2.97
2023-05-11T18:36:51.893Z,3.63
2023-05-11T18:39:19.253Z,3.72
2023-05-11T18:41:45.883Z,3.78
2023-05-11T18:44:13.977Z,3.80
2023-05-11T18:46:41.043Z,3.35
2023-05-11T18:49:07.487Z,2.83
2023-05-11T18:51:33.933Z,3.00
2023-05-11T18:54:00.336Z,3.15
2023-05-11T18:56:26.741Z,2.83
2023-05-11T18:58:53.346Z,2.70
2023-05-11T19:01:19.917Z,2.77
2023-05-11T19:03:47.102Z,2.70
2023-05-11T19:06:13.650Z,2.90
2023-05-11T19:08:40.343Z,2.92
2023-05-11T19:11:07.914Z,3.10
2023-05-11T19:13:34.928Z,2.97
2023-05-11T19:16:03.598Z,3.83
2023-05-11T19:18:30.854Z,3.15
2023-05-11T19:20:57.335Z,3.22
2023-05-11T19:23:23.757Z,3.67
2023-05-11T19:25:50.282Z,3.77
2023-05-11T19:28:17.375Z,3.17
2023-05-11T19:30:43.834Z,3.35
2023-05-11T19:33:10.312Z,4.22
2023-05-11T19:35:36.715Z,3.85
2023-05-11T19:38:03.192Z,4.23
2023-05-11T19:43:00.933Z,4.20
2023-05-11T19:45:31.286Z,4.40
2023-05-11T19:47:59.077Z,4.63
2023-05-11T19:50:26.492Z,4.80
2023-05-11T19:52:53.397Z,4.45
2023-05-11T19:55:20.298Z,4.90
2023-05-11T19:57:46.805Z,4.70
2023-05-11T20:00:13.437Z,4.93
2023-05-11T20:02:40.237Z,4.10
2023-05-11T20:05:07.757Z,4.53
2023-05-11T20:07:34.266Z,4.68
2023-05-11T20:10:00.800Z,4.10
2023-05-11T20:12:27.142Z,4.55
2023-05-11T20:14:53.512Z,4.47
2023-05-11T20:17:20.048Z,4.28
2023-05-11T20:19:46.701Z,4.55
2023-05-11T20:22:13.374Z,4.78
2023-05-11T20:24:39.764Z,4.18
2023-05-11T20:27:09.520Z,4.60
2023-05-11T20:29:36.363Z,4.70
2023-05-11T20:32:03.189Z,3.58
2023-05-11T20:34:29.797Z,2.35
2023-05-11T20:36:56.286Z,2.67
2023-05-11T20:39:23.144Z,2.00
2023-05-11T20:41:52.094Z,1.65
2023-05-11T20:44:18.745Z,1.92
2023-05-11T20:46:47.272Z,1.85
2023-05-11T20:49:22.227Z,2.20
2023-05-11T20:51:54.117Z,2.10
2023-05-11T20:54:22.453Z,2.20
2023-05-11T20:56:49.573Z,2.22
2023-05-11T21:01:45.635Z,2.50
2023-05-11T21:04:12.006Z,2.05
2023-05-11T21:06:39.626Z,2.58
2023-05-11T21:09:06.427Z,2.80
2023-05-11T21:11:32.798Z,2.83
2023-05-11T21:13:59.245Z,3.30
2023-05-11T21:16:25.655Z,3.00
2023-05-11T21:18:53.459Z,3.33
2023-05-11T21:21:19.972Z,3.20
2023-05-11T21:23:46.393Z,3.60
2023-05-11T21:26:12.794Z,3.50
2023-05-11T21:28:40.565Z,3.40
2023-05-11T21:31:07.197Z,3.65
2023-05-11T21:33:33.612Z,3.92
2023-05-11T21:36:00.039Z,3.40
2023-05-11T21:38:26.455Z,3.60
2023-05-11T21:40:54.644Z,3.27
2023-05-11T21:43:21.162Z,3.20
2023-05-11T21:45:49.631Z,3.10
2023-05-11T21:48:16.508Z,2.63
2023-05-11T21:50:44.150Z,2.92
2023-05-11T21:53:10.967Z,3.33
2023-05-11T21:55:37.529Z,3.33
2023-05-11T21:58:03.955Z,3.17
2023-05-11T22:00:32.627Z,3.42
2023-05-11T22:02:59.118Z,3.10
2023-05-11T22:05:26.486Z,3.40
2023-05-11T22:07:57.805Z,3.70
2023-05-11T22:10:29.770Z,3.60
2023-05-11T22:12:56.187Z,3.53
2023-05-11T22:15:22.709Z,4.00
2023-05-11T22:17:49.646Z,4.37
2023-05-11T22:20:17.109Z,3.70
2023-05-11T22:22:43.662Z,4.18
2023-05-11T22:25:10.428Z,4.05
2023-05-11T22:27:36.845Z,4.35
2023-05-11T22:30:03.743Z,4.40
2023-05-11T22:32:31.518Z,3.75
2023-05-11T22:34:59.981Z,3.67
2023-05-11T22:37:26.928Z,3.85
2023-05-11T22:39:54.126Z,4.50
2023-05-11T22:42:21.731Z,3.55
2023-05-11T22:44:48.440Z,4.07
2023-05-11T22:47:14.824Z,4.00
2023-05-11T22:49:41.265Z,3.45
2023-05-11T22:52:07.988Z,3.72
2023-05-11T22:54:35.893Z,3.45
2023-05-11T22:57:03.456Z,4.15
2023-05-11T22:59:34.172Z,3.60
2023-05-11T23:02:03.228Z,3.72
2023-05-11T23:04:31.191Z,3.88
2023-05-11T23:06:58.706Z,3.58
2023-05-11T23:09:25.389Z,3.80
2023-05-11T23:11:51.892Z,3.33
2023-05-11T23:14:18.377Z,3.35
2023-05-11T23:16:44.811Z,2.80
2023-05-11T23:19:11.609Z,2.45
2023-05-11T23:21:38.003Z,2.60
2023-05-11T23:24:04.848Z,2.53
2023-05-11T23:26:31.223Z,2.40
2023-05-11T23:28:57.667Z,2.58
2023-05-11T23:31:24.126Z,2.45
2023-05-11T23:33:50.513Z,2.28
2023-05-11T23:36:17.133Z,2.65
2023-05-11T23:38:43.551Z,2.22
2023-05-11T23:41:09.974Z,2.22
2023-05-11T23:43:37.230Z,2.28
2023-05-11T23:46:03.723Z,2.45
2023-05-11T23:48:30.263Z,2.78
2023-05-11T23:50:56.875Z,2.83
2023-05-11T23:53:23.399Z,2.67
2023-05-11T23:55:49.867Z,3.15
2023-05-11T23:58:16.395Z,2.47
